createdAt,value
2022-12-07T00:01:42.037Z,21.53
2022-12-07T00:04:13.299Z,21.07
2022-12-07T00:06:43.711Z,23.57
2022-12-07T00:09:17.372Z,26.10
2022-12-07T00:11:45.436Z,28.20
2022-12-07T00:14:16.753Z,22.27
2022-12-07T00:16:45.142Z,24.50
2022-12-07T00:19:28.072Z,31.03
2022-12-07T00:21:56.080Z,25.93
2022-12-07T00:24:22.813Z,27.63
2022-12-07T00:26:49.597Z,27.43
2022-12-07T00:29:20.779Z,21.43
2022-12-07T00:31:48.281Z,22.83
2022-12-07T00:34:19.604Z,25.47
2022-12-07T00:36:46.432Z,23.20
2022-12-07T00:39:13.360Z,23.43
2022-12-07T00:41:40.159Z,22.60
2022-12-07T00:44:07.104Z,22.33
2022-12-07T00:46:33.986Z,24.97
2022-12-07T00:49:00.976Z,22.00
2022-12-07T00:51:27.897Z,20.10
2022-12-07T00:53:55.152Z,25.50
2022-12-07T00:56:28.059Z,23.70
2022-12-07T00:59:01.488Z,20.90
2022-12-07T01:01:32.445Z,24.70
2022-12-07T01:04:02.024Z,21.73
2022-12-07T01:06:29.547Z,24.93
2022-12-07T01:08:56.398Z,24.63
2022-12-07T01:11:28.243Z,26.50
2022-12-07T01:13:57.845Z,22.20
2022-12-07T01:16:28.768Z,20.87
2022-12-07T01:18:58.258Z,22.60
2022-12-07T01:21:33.663Z,21.37
2022-12-07T01:24:00.558Z,22.90
2022-12-07T01:26:27.827Z,26.27
2022-12-07T01:28:56.168Z,22.07
2022-12-07T01:31:26.010Z,23.83
2022-12-07T01:33:56.982Z,23.53
2022-12-07T01:36:31.687Z,19.17
2022-12-07T01:39:02.835Z,18.13
2022-12-07T01:41:34.202Z,19.67
2022-12-07T01:44:32.914Z,22.63
2022-12-07T01:47:04.980Z,19.00
2022-12-07T01:49:49.476Z,19.30
2022-12-07T01:52:23.428Z,20.90
2022-12-07T01:54:55.496Z,19.13
2022-12-07T01:57:23.605Z,20.23
2022-12-07T01:59:52.995Z,22.07
2022-12-07T02:02:26.787Z,24.60
2022-12-07T02:04:56.692Z,21.23
2022-12-07T02:07:24.873Z,21.50
2022-12-07T02:09:51.746Z,23.77
2022-12-07T02:12:19.249Z,28.17
2022-12-07T02:14:46.120Z,26.43
2022-12-07T02:17:50.740Z,24.27
2022-12-07T02:20:31.596Z,28.07
2022-12-07T02:23:22.261Z,25.70
2022-12-07T02:26:19.560Z,29.90
2022-12-07T02:29:07.199Z,31.77
2022-12-07T02:31:34.086Z,25.77
2022-12-07T02:34:13.918Z,26.67
2022-12-07T02:36:53.093Z,25.57
2022-12-07T02:39:44.955Z,26.83
2022-12-07T02:42:27.669Z,25.37
2022-12-07T02:44:54.847Z,33.13
2022-12-07T02:47:25.805Z,30.40
2022-12-07T02:49:53.638Z,25.47
2022-12-07T02:52:20.421Z,25.67
2022-12-07T02:54:47.199Z,26.67
2022-12-07T02:57:28.895Z,27.73
2022-12-07T03:00:09.836Z,26.37
2022-12-07T03:03:01.859Z,27.77
2022-12-07T03:06:01.354Z,28.70
2022-12-07T03:08:40.500Z,26.73
2022-12-07T03:11:17.644Z,24.77
2022-12-07T03:14:22.972Z,23.30
2022-12-07T03:17:07.285Z,25.97
2022-12-07T03:19:36.793Z,24.03
2022-12-07T03:22:13.679Z,26.57
2022-12-07T03:24:48.299Z,23.80
2022-12-07T03:27:24.931Z,23.17
2022-12-07T03:30:02.113Z,29.43
2022-12-07T03:32:45.904Z,25.87
2022-12-07T03:35:38.429Z,24.80
2022-12-07T03:38:50.140Z,23.13
2022-12-07T03:41:26.024Z,24.87
2022-12-07T03:43:55.981Z,26.73
2022-12-07T03:46:25.731Z,31.30
2022-12-07T03:49:00.308Z,25.60
2022-12-07T03:51:39.869Z,25.27
2022-12-07T03:54:12.230Z,27.73
2022-12-07T03:56:40.655Z,23.87
2022-12-07T03:59:08.472Z,23.87
2022-12-07T04:01:35.301Z,23.20
2022-12-07T04:04:02.231Z,25.77
2022-12-07T04:06:29.001Z,24.83
2022-12-07T04:08:56.026Z,24.60
2022-12-07T04:11:22.751Z,24.23
2022-12-07T04:14:08.164Z,24.87
2022-12-07T04:16:38.414Z,25.33
2022-12-07T04:19:07.803Z,26.47
2022-12-07T04:21:34.524Z,27.50
2022-12-07T04:24:01.271Z,22.00
2022-12-07T04:26:27.970Z,30.33
2022-12-07T04:28:54.721Z,26.90
2022-12-07T04:31:21.642Z,27.00
2022-12-07T04:33:48.485Z,25.30
2022-12-07T04:36:15.403Z,24.20
2022-12-07T04:38:42.168Z,22.03
2022-12-07T04:41:10.607Z,22.43
2022-12-07T04:43:37.365Z,27.87
2022-12-07T04:46:04.776Z,24.27
2022-12-07T04:48:31.782Z,22.90
2022-12-07T04:50:58.590Z,26.47
2022-12-07T04:53:25.378Z,25.20
2022-12-07T04:55:52.101Z,21.83
2022-12-07T04:58:18.809Z,28.27
2022-12-07T05:00:45.575Z,23.27
2022-12-07T05:03:12.409Z,24.70
2022-12-07T05:05:42.531Z,25.67
2022-12-07T05:08:09.506Z,26.40
2022-12-07T05:10:36.247Z,26.43
2022-12-07T05:13:02.972Z,31.63
2022-12-07T05:15:29.712Z,25.23
2022-12-07T05:17:56.561Z,23.03
2022-12-07T05:20:23.429Z,29.47
2022-12-07T05:22:50.164Z,22.80
2022-12-07T05:25:17.015Z,25.37
2022-12-07T05:27:43.754Z,26.30
2022-12-07T05:30:11.163Z,23.43
2022-12-07T05:32:37.883Z,29.03
2022-12-07T05:35:05.305Z,26.10
2022-12-07T05:37:32.484Z,27.87
2022-12-07T05:39:59.350Z,28.57
2022-12-07T05:42:26.071Z,22.93
2022-12-07T05:44:52.793Z,25.23
2022-12-07T05:47:19.599Z,29.20
2022-12-07T05:49:46.661Z,26.50
2022-12-07T05:52:13.524Z,25.07
2022-12-07T05:54:40.355Z,29.50
2022-12-07T05:57:07.104Z,25.00
2022-12-07T05:59:33.944Z,29.40
2022-12-07T06:02:11.278Z,24.23
2022-12-07T06:04:43.031Z,27.63
2022-12-07T06:07:10.963Z,21.73
2022-12-07T06:09:38.371Z,26.60
2022-12-07T06:12:24.811Z,26.23
2022-12-07T06:14:51.969Z,22.37
2022-12-07T06:17:18.792Z,23.10
2022-12-07T06:19:45.537Z,28.30
2022-12-07T06:22:13.598Z,25.97
2022-12-07T06:24:40.814Z,24.83
2022-12-07T06:27:07.911Z,21.73
2022-12-07T06:29:35.463Z,24.87
2022-12-07T06:32:02.756Z,20.90
2022-12-07T06:34:29.750Z,20.67
2022-12-07T06:36:56.728Z,21.63
2022-12-07T06:39:26.929Z,22.33
2022-12-07T06:41:54.915Z,25.87
2022-12-07T06:44:22.933Z,22.23
2022-12-07T06:46:50.944Z,21.57
2022-12-07T06:49:17.948Z,24.80
2022-12-07T06:51:45.188Z,25.90
2022-12-07T06:54:14.482Z,26.73
2022-12-07T06:56:41.713Z,22.67
2022-12-07T06:59:09.107Z,28.80
2022-12-07T07:01:37.044Z,21.73
2022-12-07T07:04:04.827Z,22.00
2022-12-07T07:06:31.920Z,24.53
2022-12-07T07:08:58.755Z,26.87
2022-12-07T07:11:25.583Z,26.77
2022-12-07T07:13:52.298Z,24.20
2022-12-07T07:16:19.121Z,28.40
2022-12-07T07:18:45.926Z,24.33
2022-12-07T07:21:12.616Z,25.73
2022-12-07T07:23:39.410Z,24.50
2022-12-07T07:26:06.274Z,26.93
2022-12-07T07:28:33.049Z,28.43
2022-12-07T07:30:59.898Z,26.30
2022-12-07T07:33:26.631Z,26.07
2022-12-07T07:35:53.389Z,24.83
2022-12-07T07:38:20.215Z,25.00
2022-12-07T07:40:47.012Z,22.67
2022-12-07T07:43:13.827Z,27.40
2022-12-07T07:45:41.469Z,31.33
2022-12-07T07:48:08.270Z,27.20
2022-12-07T07:50:35.040Z,25.50
2022-12-07T07:53:01.768Z,27.87
2022-12-07T07:55:28.485Z,25.93
2022-12-07T07:57:55.400Z,22.90
2022-12-07T08:00:23.227Z,27.03
2022-12-07T08:02:50.117Z,25.00
2022-12-07T08:05:17.856Z,25.73
2022-12-07T08:07:44.970Z,25.00
2022-12-07T08:10:13.794Z,24.60
2022-12-07T08:13:01.998Z,24.80
2022-12-07T08:15:31.742Z,24.90
2022-12-07T08:17:59.321Z,25.30
2022-12-07T08:20:26.876Z,25.13
2022-12-07T08:22:53.809Z,25.37
2022-12-07T08:25:20.723Z,24.67
2022-12-07T08:27:47.493Z,27.40
2022-12-07T08:30:14.687Z,22.30
2022-12-07T08:32:41.826Z,26.30
2022-12-07T08:35:09.403Z,25.97
2022-12-07T08:37:36.547Z,24.10
2022-12-07T08:40:05.671Z,22.87
2022-12-07T08:42:38.781Z,23.53
2022-12-07T08:45:10.087Z,23.53
2022-12-07T08:47:42.922Z,26.73
2022-12-07T08:50:12.568Z,22.93
2022-12-07T08:52:41.900Z,28.47
2022-12-07T08:55:12.473Z,21.90
2022-12-07T08:57:40.475Z,20.50
2022-12-07T09:00:08.425Z,19.23
2022-12-07T09:02:35.225Z,22.50
2022-12-07T09:05:01.943Z,23.87
2022-12-07T09:07:30.561Z,23.73
2022-12-07T09:09:57.377Z,21.17
2022-12-07T09:12:24.151Z,18.23
2022-12-07T09:14:50.929Z,22.00
2022-12-07T09:17:17.684Z,16.60
2022-12-07T09:19:44.471Z,15.97
2022-12-07T09:22:11.707Z,15.20
2022-12-07T09:24:38.472Z,11.73
2022-12-07T09:27:05.425Z,13.10
2022-12-07T09:29:32.161Z,13.73
2022-12-07T09:31:58.940Z,12.27
2022-12-07T09:34:27.117Z,12.70
2022-12-07T09:36:53.897Z,12.53
2022-12-07T09:39:20.661Z,9.53
2022-12-07T09:41:47.500Z,16.77
2022-12-07T09:44:27.586Z,16.63
2022-12-07T09:46:54.812Z,13.27
2022-12-07T09:49:26.455Z,17.93
2022-12-07T09:52:26.141Z,12.83
2022-12-07T09:54:53.393Z,14.90
2022-12-07T09:57:32.281Z,15.00
2022-12-07T10:00:05.780Z,17.37
2022-12-07T10:02:46.881Z,16.77
2022-12-07T10:05:30.234Z,20.37
2022-12-07T10:07:57.351Z,21.90
2022-12-07T10:10:38.376Z,19.93
2022-12-07T10:13:11.083Z,22.97
2022-12-07T10:15:55.610Z,21.70
2022-12-07T10:18:34.250Z,20.60
2022-12-07T10:21:24.946Z,19.37
2022-12-07T10:24:11.188Z,22.13
2022-12-07T10:26:49.245Z,22.33
2022-12-07T10:29:53.248Z,23.73
2022-12-07T10:32:19.905Z,22.83
2022-12-07T10:34:52.144Z,25.67
2022-12-07T10:37:21.455Z,21.13
2022-12-07T10:39:55.834Z,19.40
2022-12-07T10:42:33.386Z,22.47
2022-12-07T10:45:16.212Z,19.33
2022-12-07T10:48:13.969Z,18.47
2022-12-07T10:51:25.166Z,17.87
2022-12-07T10:54:00.489Z,16.67
2022-12-07T10:57:02.964Z,20.27
2022-12-07T10:59:38.264Z,22.33
2022-12-07T11:02:34.932Z,22.03
2022-12-07T11:05:38.318Z,22.40
2022-12-07T11:08:19.030Z,22.63
2022-12-07T11:10:58.980Z,21.63
2022-12-07T11:13:57.233Z,16.90
2022-12-07T11:16:56.435Z,16.73
2022-12-07T11:20:06.101Z,16.53
2022-12-07T11:23:12.213Z,14.67
2022-12-07T11:26:08.310Z,15.93
2022-12-07T11:29:02.107Z,18.67
2022-12-07T11:31:52.577Z,14.57
2022-12-07T11:34:39.967Z,13.87
2022-12-07T11:37:18.210Z,16.83
2022-12-07T11:40:02.863Z,19.20
2022-12-07T11:42:41.313Z,17.80
2022-12-07T11:45:25.444Z,15.20
2022-12-07T11:48:04.965Z,17.67
2022-12-07T11:50:45.951Z,13.93
2022-12-07T11:53:24.950Z,13.60
2022-12-07T11:56:09.267Z,12.47
2022-12-07T11:59:01.567Z,18.47
2022-12-07T12:02:25.137Z,15.67
2022-12-07T12:05:18.013Z,16.03
2022-12-07T12:10:51.027Z,15.67
2022-12-07T12:17:14.169Z,13.00
2022-12-07T12:19:58.254Z,12.63
2022-12-07T12:22:38.018Z,16.73
2022-12-07T12:25:20.905Z,14.20
2022-12-07T12:27:50.366Z,11.20
2022-12-07T12:30:40.533Z,16.77
2022-12-07T12:33:28.395Z,14.10
2022-12-07T12:36:36.221Z,10.53
2022-12-07T12:39:15.219Z,16.43
2022-12-07T12:42:01.893Z,12.77
2022-12-07T12:44:32.991Z,12.27
2022-12-07T12:47:05.722Z,11.57
2022-12-07T12:49:40.871Z,10.90
2022-12-07T12:52:16.203Z,9.20
2022-12-07T12:55:19.893Z,12.03
2022-12-07T12:57:49.365Z,15.73
2022-12-07T13:00:22.641Z,10.27
2022-12-07T13:02:56.275Z,11.83
2022-12-07T13:05:28.302Z,13.33
2022-12-07T13:08:18.235Z,10.60
2022-12-07T13:10:48.846Z,10.83
2022-12-07T13:13:15.527Z,11.13
2022-12-07T13:15:51.702Z,11.47
2022-12-07T13:18:28.769Z,12.07
2022-12-07T13:21:02.393Z,10.40
2022-12-07T13:23:33.703Z,10.73
2022-12-07T13:26:24.480Z,11.27
2022-12-07T13:29:13.109Z,16.53
2022-12-07T13:31:50.764Z,11.70
2022-12-07T13:34:39.257Z,10.50
2022-12-07T13:37:31.385Z,10.37
2022-12-07T13:40:21.340Z,10.13
2022-12-07T13:42:48.293Z,9.37
2022-12-07T13:45:49.785Z,12.80
2022-12-07T13:48:38.590Z,11.03
2022-12-07T13:51:27.138Z,11.03
2022-12-07T13:54:11.643Z,15.00
2022-12-07T13:56:40.507Z,10.87
2022-12-07T13:59:21.057Z,12.33
2022-12-07T14:01:50.377Z,11.73
2022-12-07T14:04:36.000Z,10.17
2022-12-07T14:07:27.527Z,10.57
2022-12-07T14:10:06.957Z,14.17
2022-12-07T14:12:37.260Z,12.60
2022-12-07T14:15:05.270Z,14.17
2022-12-07T14:17:32.534Z,12.43
2022-12-07T14:20:02.228Z,10.23
2022-12-07T14:22:35.970Z,9.40
2022-12-07T14:25:24.496Z,9.80
2022-12-07T14:27:59.299Z,10.63
2022-12-07T14:30:34.824Z,13.63
2022-12-07T14:33:06.460Z,13.80
2022-12-07T14:35:33.858Z,12.83
2022-12-07T14:38:00.805Z,13.93
2022-12-07T14:40:30.767Z,16.23
2022-12-07T14:43:07.726Z,10.37
2022-12-07T14:45:34.405Z,14.07
2022-12-07T14:53:49.966Z,16.63
2022-12-07T14:56:20.037Z,9.37
2022-12-07T14:58:49.030Z,15.87
2022-12-07T15:01:15.817Z,12.23
2022-12-07T15:03:42.627Z,15.50
2022-12-07T15:06:16.895Z,12.93
2022-12-07T15:08:45.348Z,11.87
2022-12-07T15:11:17.076Z,15.37
2022-12-07T15:14:02.405Z,10.70
2022-12-07T15:16:40.577Z,13.50
2022-12-07T15:19:28.974Z,12.63
2022-12-07T15:21:57.568Z,11.63
2022-12-07T15:24:25.098Z,16.27
2022-12-07T15:26:53.220Z,12.70
2022-12-07T15:29:23.155Z,10.83
2022-12-07T15:31:56.376Z,12.10
2022-12-07T15:34:31.857Z,12.23
2022-12-07T15:37:00.217Z,10.07
2022-12-07T15:39:26.959Z,13.30
2022-12-07T15:41:53.662Z,10.33
2022-12-07T15:44:39.202Z,12.93
2022-12-07T15:47:06.749Z,9.43
2022-12-07T15:49:33.647Z,11.43
2022-12-07T15:52:00.487Z,9.60
2022-12-07T15:54:29.997Z,12.40
2022-12-07T15:56:57.680Z,12.30
2022-12-07T15:59:26.218Z,9.87
2022-12-07T16:01:53.051Z,13.47
2022-12-07T16:04:20.111Z,12.03
2022-12-07T16:06:47.385Z,16.50
2022-12-07T16:09:14.304Z,14.53
2022-12-07T16:11:41.114Z,14.03
2022-12-07T16:14:07.882Z,11.63
2022-12-07T16:16:34.736Z,10.77
2022-12-07T16:19:01.588Z,12.43
2022-12-07T16:21:28.298Z,12.73
2022-12-07T16:23:55.020Z,13.47
2022-12-07T16:26:22.868Z,12.10
2022-12-07T16:28:52.375Z,14.83
2022-12-07T16:31:24.248Z,10.50
2022-12-07T16:33:54.157Z,10.67
2022-12-07T16:36:47.254Z,11.07
2022-12-07T16:39:10.775Z,10.53
2022-12-07T16:41:37.878Z,12.30
2022-12-07T16:44:12.097Z,12.77
2022-12-07T16:46:39.557Z,13.63
2022-12-07T16:49:06.439Z,10.37
2022-12-07T16:51:35.578Z,9.77
2022-12-07T16:54:02.373Z,38.37
2022-12-07T16:56:29.999Z,44.87
2022-12-07T16:58:59.687Z,40.07
2022-12-07T17:01:29.013Z,16.70
2022-12-07T17:03:57.826Z,13.77
2022-12-07T17:06:28.536Z,9.83
2022-12-07T17:08:56.912Z,8.17
2022-12-07T17:11:27.670Z,10.37
2022-12-07T17:14:13.736Z,13.10
2022-12-07T17:16:40.879Z,11.23
2022-12-07T17:19:13.497Z,12.87
2022-12-07T17:21:41.311Z,11.37
2022-12-07T17:24:12.305Z,11.03
2022-12-07T17:26:40.508Z,13.03
2022-12-07T17:29:08.823Z,13.70
2022-12-07T17:31:36.612Z,13.23
2022-12-07T17:34:03.634Z,15.43
2022-12-07T17:36:32.713Z,10.30
2022-12-07T17:38:59.553Z,16.63
2022-12-07T17:41:47.902Z,16.30
2022-12-07T17:44:18.965Z,15.77
2022-12-07T17:46:48.656Z,13.67
2022-12-07T17:49:16.678Z,11.20
2022-12-07T17:52:02.707Z,11.77
2022-12-07T17:54:30.266Z,14.30
2022-12-07T17:56:57.519Z,13.53
2022-12-07T17:59:25.150Z,13.80
2022-12-07T18:01:52.263Z,13.63
2022-12-07T18:04:19.095Z,14.00
2022-12-07T18:06:48.965Z,13.57
2022-12-07T18:09:19.780Z,18.07
2022-12-07T18:11:46.574Z,17.80
2022-12-07T18:14:13.506Z,17.30
2022-12-07T18:16:40.953Z,14.60
2022-12-07T18:19:14.172Z,12.03
2022-12-07T18:21:41.662Z,14.20
2022-12-07T18:24:13.076Z,15.53
2022-12-07T18:26:41.468Z,18.47
2022-12-07T18:29:12.850Z,13.03
2022-12-07T18:31:39.609Z,14.57
2022-12-07T18:34:14.212Z,15.53
2022-12-07T18:36:47.379Z,13.23
2022-12-07T18:39:15.852Z,15.40
2022-12-07T18:41:43.234Z,13.30
2022-12-07T18:44:10.711Z,19.07
2022-12-07T18:46:38.256Z,14.33
2022-12-07T18:49:05.178Z,13.77
2022-12-07T18:51:32.787Z,14.77
2022-12-07T18:54:01.511Z,13.43
2022-12-07T18:56:29.053Z,13.43
2022-12-07T18:59:20.413Z,10.97
2022-12-07T19:01:52.049Z,12.70
2022-12-07T19:04:19.096Z,13.10
2022-12-07T19:06:48.617Z,16.73
2022-12-07T19:09:16.676Z,11.80
2022-12-07T19:11:49.501Z,15.23
2022-12-07T19:14:29.401Z,12.60
2022-12-07T19:17:02.741Z,16.37
2022-12-07T19:19:40.597Z,14.23
2022-12-07T19:22:11.483Z,12.87
2022-12-07T19:24:41.664Z,16.23
2022-12-07T19:27:09.189Z,13.43
2022-12-07T19:29:38.339Z,14.63
2022-12-07T19:32:08.626Z,12.40
2022-12-07T19:34:37.585Z,13.03
2022-12-07T19:37:05.492Z,15.60
2022-12-07T19:39:33.046Z,15.53
2022-12-07T19:42:00.072Z,14.37
2022-12-07T19:44:29.838Z,16.47
2022-12-07T19:47:04.682Z,15.40
2022-12-07T19:49:34.465Z,17.23
2022-12-07T19:52:06.367Z,15.47
2022-12-07T19:54:35.426Z,14.43
2022-12-07T19:57:04.426Z,14.17
2022-12-07T19:59:31.643Z,16.97
2022-12-07T20:01:58.546Z,14.97
2022-12-07T20:04:29.542Z,16.50
2022-12-07T20:07:01.049Z,15.83
2022-12-07T20:09:28.505Z,16.23
2022-12-07T20:12:13.653Z,13.03
2022-12-07T20:14:40.496Z,17.73
2022-12-07T20:17:07.431Z,17.07
2022-12-07T20:19:37.841Z,18.33
2022-12-07T20:22:05.508Z,20.03
2022-12-07T20:24:34.575Z,16.67
2022-12-07T20:27:02.247Z,20.50
2022-12-07T20:29:28.978Z,15.67
2022-12-07T20:31:58.116Z,22.03
2022-12-07T20:34:26.406Z,17.00
2022-12-07T20:36:54.794Z,20.17
2022-12-07T20:39:23.442Z,19.77
2022-12-07T20:42:09.917Z,19.73
2022-12-07T20:44:37.543Z,18.60
2022-12-07T20:47:06.464Z,17.70
2022-12-07T20:49:33.945Z,20.83
2022-12-07T20:52:01.036Z,22.33
2022-12-07T20:54:27.760Z,18.63
2022-12-07T20:56:54.569Z,18.20
2022-12-07T20:59:21.356Z,18.90
2022-12-07T21:01:48.581Z,21.20
2022-12-07T21:04:15.729Z,21.57
2022-12-07T21:06:42.605Z,18.73
2022-12-07T21:09:11.678Z,22.27
2022-12-07T21:11:39.598Z,20.87
2022-12-07T21:14:07.920Z,24.97
2022-12-07T21:16:34.984Z,23.30
2022-12-07T21:19:03.862Z,21.33
2022-12-07T21:21:32.889Z,21.20
2022-12-07T21:24:03.454Z,17.70
2022-12-07T21:26:36.030Z,16.77
2022-12-07T21:29:06.890Z,17.07
2022-12-07T21:31:35.041Z,18.10
2022-12-07T21:34:03.829Z,15.97
2022-12-07T21:36:31.000Z,12.43
2022-12-07T21:38:57.911Z,13.40
2022-12-07T21:41:28.595Z,15.17
2022-12-07T21:43:56.521Z,15.33
2022-12-07T21:46:31.506Z,15.90
2022-12-07T21:49:07.400Z,18.37
2022-12-07T21:51:35.009Z,17.60
2022-12-07T21:54:03.957Z,14.70
2022-12-07T21:56:34.419Z,18.17
2022-12-07T21:59:05.697Z,20.07
2022-12-07T22:01:37.902Z,16.27
2022-12-07T22:04:08.239Z,16.13
2022-12-07T22:06:36.838Z,15.73
2022-12-07T22:09:05.706Z,16.90
2022-12-07T22:11:33.473Z,13.33
2022-12-07T22:14:18.702Z,18.07
2022-12-07T22:16:45.437Z,16.87
2022-12-07T22:19:12.387Z,14.40
2022-12-07T22:21:39.090Z,16.23
2022-12-07T22:24:06.316Z,14.80
2022-12-07T22:26:33.490Z,13.40
2022-12-07T22:29:01.588Z,14.93
2022-12-07T22:31:29.073Z,13.53
2022-12-07T22:33:55.951Z,17.67
2022-12-07T22:36:22.725Z,15.10
2022-12-07T22:38:49.481Z,16.90
2022-12-07T22:41:31.017Z,15.33
2022-12-07T22:43:59.343Z,16.87
2022-12-07T22:46:26.919Z,16.23
2022-12-07T22:48:54.055Z,17.53
2022-12-07T22:51:27.801Z,19.40
2022-12-07T22:53:55.538Z,19.97
2022-12-07T22:56:23.082Z,17.47
2022-12-07T22:58:50.151Z,18.43
2022-12-07T23:01:19.290Z,16.50
2022-12-07T23:03:46.556Z,15.43
2022-12-07T23:06:21.583Z,17.37
2022-12-07T23:08:49.526Z,22.27
2022-12-07T23:11:39.384Z,17.90
2022-12-07T23:14:20.423Z,18.87
2022-12-07T23:16:47.408Z,19.43
2022-12-07T23:19:14.432Z,19.70
2022-12-07T23:21:41.264Z,19.77
2022-12-07T23:24:09.368Z,17.07
2022-12-07T23:26:36.177Z,17.63
2022-12-07T23:29:03.001Z,19.13
2022-12-07T23:31:29.789Z,16.30
2022-12-07T23:33:56.559Z,18.43
2022-12-07T23:36:26.817Z,16.93
2022-12-07T23:38:56.155Z,19.00
2022-12-07T23:41:29.955Z,18.37
2022-12-07T23:43:59.213Z,16.30
2022-12-07T23:46:30.272Z,16.03
2022-12-07T23:49:00.123Z,19.53
2022-12-07T23:51:26.889Z,16.00
2022-12-07T23:53:54.447Z,18.77
2022-12-07T23:56:26.395Z,15.67
2022-12-07T23:58:54.933Z,16.57
